ADDS METAR Data INFO
IDs: Format: Raw Decoded Include TAF

Data at: 2049 UTC 24 Jun 2018

PANT 241953Z AUTO 15006KT 4SM -RA BR FEW008 SCT014 OVC021 12/12 A2994 RMK SLP139 P0002 T01220122 TSNO VIA AUTODIAL
PANT 241901Z AUTO 15008KT 8SM -RA FEW008 BKN015 OVC021 12/12 A2994 RMK P0000 T01220117 TSNO VIA AUTODIAL
PANT 241853Z AUTO 15007KT 6SM -RA BR FEW004 BKN007 OVC020 12/12 A2994 RMK RAB43 SLP140 P0000 T01220117 TSNO VIA AUTODIAL
PANT 241653Z AUTO 15010KT 10SM FEW009 OVC024 12/12 A2995 RMK SLP141 T01220117 TSNO VIA AUTODIAL
PANT 241651Z AUTO 15009G15KT 10SM FEW009 OVC022 12/12 A2995 RMK TSNO VIA AUTODIAL
PANT 241644Z AUTO 16007G14KT 10SM FEW010 SCT016 OVC020 12/12 A2995 RMK T01170117 TSNO VIA AUTODIAL
PANT 241604Z AUTO 15010KT 10SM BKN011 BKN017 OVC025 12/12 A2995 RMK T01220117 TSNO VIA AUTODIAL
PANT 241553Z AUTO 15010G18KT 10SM BKN008 OVC015 12/12 A2994 RMK RAE30 SLP141 P0008 T01170117 TSNO VIA AUTODIAL
PANT 241551Z AUTO 14008KT 10SM SCT008 BKN011 OVC016 12/12 A2995 RMK RAE30 P0008 TSNO VIA AUTODIAL
PANT 241528Z AUTO 15009G17KT 140V200 6SM -RA BR SCT006 BKN009 OVC017 12/12 A2995 RMK P0008 T01170117 TSNO VIA AUTODIAL
PANT 241517Z AUTO 16010G17KT 2SM -RA BR BKN006 OVC012 12/12 A2994 RMK P0007 T01170117 TSNO VIA AUTODIAL
PANT 241510Z AUTO 17007KT 120V200 1 3/4SM +RA BR SCT006 OVC011 12/12 A2995 RMK P0004 T01170117 TSNO VIA AUTODIAL
PANT 241501Z AUTO 13010G15KT 2 1/2SM -RA BR BKN009 OVC015 12/12 A2994 RMK P0001 T01170117 TSNO VIA AUTODIAL
PANT 241453Z AUTO 14007KT 2SM -RA BR SCT009 OVC015 12/12 A2995 RMK RAB17 SLP141 P0007 60010 T01170117 55003 TSNO VIA AUTODIAL
PANT 241447Z AUTO 13008KT 2SM -RA BR BKN009 OVC015 12/12 A2995 RMK RAB17 P0006 TSNO VIA AUTODIAL
PANT 241436Z AUTO 13010G15KT 1 3/4SM -RA BR FEW008 BKN015 OVC021 12/12 A2994 RMK RAB17 P0003 T01170117 TSNO VIA AUTODIAL
PANT 241434Z AUTO 14008G15KT 1 3/4SM -RA BR BKN012 BKN017 OVC021 12/12 A2994 RMK RAB17 P0003 T01170117 TSNO VIA AUTODIAL
PANT 241431Z AUTO 13009KT 2SM -RA BR BKN015 OVC021 12/12 A2994 RMK RAB17 P0002 T01170117 TSNO VIA AUTODIAL
PANT 241404Z AUTO 14010KT 10SM FEW008 BKN015 OVC022 12/12 A2994 RMK T01220117 TSNO VIA AUTODIAL
PANT 241353Z AUTO 13009KT 10SM SCT006 OVC013 12/12 A2994 RMK RAB11E43 SLP140 P0002 T01220117 TSNO VIA AUTODIAL
PANT 241351Z AUTO 13010KT 10SM SCT006 OVC011 12/12 A2994 RMK RAB11E43 P0002 TSNO VIA AUTODIAL
PANT 241346Z AUTO 13010KT 9SM BKN008 OVC013 12/12 A2994 RMK RAB11E43 P0002 T01170117 TSNO VIA AUTODIAL
PANT 241339Z AUTO 14009KT 4SM -RA BR SCT006 BKN010 OVC015 12/12 A2995 RMK RAB11 P0002 T01170117 TSNO VIA AUTODIAL
PANT 241333Z AUTO 13008KT 2SM -RA BR BKN006 OVC013 12/12 A2994 RMK RAB11 P0002 T01170117 TSNO VIA AUTODIAL
PANT 241320Z AUTO 14011G17KT 6SM -RA BR SCT009 OVC014 12/12 A2995 RMK RAB11 P0001 T01170117 TSNO VIA AUTODIAL
PANT 241313Z AUTO 15010G17KT 5SM -RA BR BKN009 OVC016 12/12 A2995 RMK RAB11 CIG 009V013 P0000 T01220117 TSNO VIA AUTODIAL
PANT 241311Z AUTO 14010G17KT 7SM -RA BKN013 OVC018 12/12 A2995 RMK RAB11 P0000 T01220117 TSNO VIA AUTODIAL
PANT 241253Z AUTO 13007KT 10SM OVC017 12/12 A2994 RMK RAE15 SLP141 P0001 T01220117 TSNO VIA AUTODIAL
PANT 241250Z AUTO 14009KT 10SM FEW008 OVC015 12/12 A2995 RMK RAE15 P0001 TSNO VIA AUTODIAL
PANT 241243Z AUTO 14009KT 10SM BKN011 OVC017 12/12 A2995 RMK RAE15 P0001 T01220117 TSNO VIA AUTODIAL
PANT 241205Z AUTO 14007KT 10SM -RA OVC009 12/12 A2995 RMK CIG 007V013 P0001 T01170117 TSNO VIA AUTODIAL
PANT 241153Z AUTO 14007KT 10SM -RA BKN010 OVC015 12/12 A2995 RMK CIG 007V011 SLP144 P0004 60011 70011 T01170117 10128 20111 56016 TSNO VIA AUTODIAL
PANT 241101Z AUTO 14007KT 4SM -RA BR BKN011 OVC018 12/12 A2997 RMK P0000 T01170117 TSNO VIA AUTODIAL
PANT 241053Z AUTO 15005KT 8SM -RA BKN015 OVC020 12/12 A2997 RMK RAE36B53 SLP149 P0003 T01170117 TSNO VIA AUTODIAL
PANT 240953Z AUTO 13004KT 6SM -RA BR OVC022 11/11 A2999 RMK RAB0856E05B10 SLP154 P0004 T01110111 TSNO VIA AUTODIAL
PANT 240906Z AUTO 14008KT 10SM BKN025 OVC030 13/10 A3000 RMK RAB0856E05 P0000 T01280100 TSNO VIA AUTODIAL
PANT 240853Z AUTO 14008KT 10SM OVC030 13/09 A3000 RMK SLP160 60000 T01280094 401500111 58015 TSNO VIA AUTODIAL
PANT 240753Z AUTO 13007KT 10SM BKN038 OVC080 13/09 A3002 RMK RAB12E21 SLP167 P0000 T01280094 TSNO VIA AUTODIAL
PANT 240717Z AUTO 14009KT 10SM -RA SCT016 BKN065 OVC080 12/10 A3003 RMK RAB12 P0000 T01220100 TSNO VIA AUTODIAL
PANT 240653Z AUTO 15007KT 10SM SCT013 BKN020 OVC090 12/10 A3004 RMK SLP172 T01220100 TSNO VIA AUTODIAL
PANT 240553Z AUTO 12008KT 10SM BKN020 OVC025 12/11 A3005 RMK RAB29E39 SLP175 P0000 60000 T01220106 10150 20117 56012 TSNO VIA AUTODIAL
PANT 240519Z AUTO 11007KT 10SM OVC029 12/09 A3005 RMK T01220094 TSNO VIA AUTODIAL
PANT 240453Z AUTO 13008KT 10SM OVC031 13/09 A3005 RMK SLP178 T01280089 TSNO VIA AUTODIAL
PANT 240353Z AUTO 12006KT 10SM OVC033 14/08 A3006 RMK SLP179 T01390078 TSNO VIA AUTODIAL
PANT 240253Z AUTO 00000KT 10SM OVC034 13/08 A3008 RMK SLP186 T01330078 56016 TSNO VIA AUTODIAL
PANT 240153Z AUTO VRB03KT 10SM OVC039 13/07 A3009 RMK SLP188 T01330072 TSNO VIA AUTODIAL
PANT 240053Z AUTO 15005KT 10SM FEW039 SCT050 OVC110 14/07 A3010 RMK SLP195 T01440067 TSNO VIA AUTODIAL
PANT 232253Z AUTO 18008KT 10SM OVC046 14/08 A3013 RMK SLP205 T01390078 TSNO VIA AUTODIAL
PANT 232153Z AUTO 17006KT 10SM OVC045 13/07 A3014 RMK SLP208 T01330072 TSNO VIA AUTODIAL
PANT 232053Z AUTO 14008KT 10SM BKN049 14/08 A3014 RMK SLP208 T01390078 58003 TSNO VIA AUTODIAL
PANT 231853Z AUTO 16010KT 10SM BKN040 13/09 A3016 RMK SLP213 T01280094 TSNO VIA AUTODIAL
PANT 231753Z AUTO 16009KT 10SM SCT034 13/09 A3015 RMK SLP211 T01280089 10133 20117 53005 TSNO VIA AUTODIAL
PANT 231711Z AUTO 17008KT 10SM FEW026 OVC033 13/09 A3015 RMK T01280089 TSNO VIA AUTODIAL
PANT 231653Z AUTO 16007KT 130V210 10SM BKN029 OVC038 13/09 A3014 RMK SLP208 T01280094 TSNO VIA AUTODIAL
PANT 231553Z AUTO 13009KT 10SM BKN016 BKN023 OVC035 13/10 A3014 RMK SLP206 T01280100 TSNO VIA AUTODIAL
PANT 231548Z AUTO 12006KT 10SM BKN016 OVC035 13/10 A3014 RMK TSNO VIA AUTODIAL
PANT 231521Z AUTO 10007KT 10SM FEW016 OVC031 12/10 A3014 RMK T01220100 TSNO VIA AUTODIAL
PANT 231507Z AUTO 11006KT 10SM BKN029 12/10 A3014 RMK T01220100 TSNO VIA AUTODIAL
PANT 231453Z AUTO 12006KT 10SM FEW029 12/10 A3014 RMK SLP208 T01220100 50002 TSNO VIA AUTODIAL
PANT 231353Z AUTO 12007KT 10SM OVC039 12/09 A3014 RMK SLP208 T01220094 TSNO VIA AUTODIAL
PANT 231253Z AUTO 13009KT 10SM FEW027 OVC036 12/09 A3014 RMK SLP206 T01220094 TSNO VIA AUTODIAL
PANT 231250Z AUTO 13009KT 10SM FEW027 OVC036 12/09 A3014 RMK TSNO VIA AUTODIAL
PANT 231205Z AUTO 13007KT 10SM BKN027 OVC040 13/09 A3014 RMK T01280094 TSNO VIA AUTODIAL
PANT 231153Z AUTO 13007KT 10SM SCT027 OVC038 13/09 A3014 RMK SLP207 T01280094 10144 20111 50001 TSNO VIA AUTODIAL
PANT 231122Z AUTO 15003KT 10SM SCT025 OVC034 13/11 A3014 RMK T01280106 TSNO VIA AUTODIAL
PANT 231103Z AUTO 13005KT 10SM SCT014 SCT020 OVC025 13/11 A3014 RMK T01280106 TSNO VIA AUTODIAL
PANT 231053Z AUTO 13006KT 10SM BKN014 OVC020 13/11 A3014 RMK SLP209 T01280111 TSNO VIA AUTODIAL
PANT 231034Z AUTO 14003KT 10SM BKN013 BKN024 OVC031 13/11 A3015 RMK T01280111 TSNO VIA AUTODIAL
PANT 231011Z AUTO 18003KT 10SM SCT012 BKN026 OVC031 12/11 A3015 RMK T01220111 TSNO VIA AUTODIAL
PANT 230953Z AUTO 16003KT 10SM BKN012 BKN029 12/11 A3015 RMK SLP210 T01220111 TSNO VIA AUTODIAL
PANT 230948Z AUTO 17003KT 10SM BKN013 BKN029 12/11 A3015 RMK TSNO VIA AUTODIAL
PANT 230853Z AUTO VRB03KT 10SM CLR 12/11 A3014 RMK SLP207 T01170106 401780117 58003 TSNO VIA AUTODIAL